Time;durP1;ratioP1;P1;durP2;ratioP2;P2;SDS_P1;SDS_P2;PMS_P1;PMS_P2;Temp;Humidity;BMP_temperature;BMP_pressure;BME280_temperature;BME280_humidity;BME280_pressure;Samples;Min_cycle;Max_cycle;Signal;HPM_P1;HPM_P2
2022/09/03 00:01:10;;;;;;;3.37;1.40;;;;;;;12.08;70.05;100384.64;1584884;88;20974;-60
2022/09/03 00:03:45;;;;;;;2.35;1.27;;;;;;;12.20;70.22;100398.50;1545321;91;20935;-60
2022/09/03 00:06:19;;;;;;;3.15;1.40;;;;;;;12.14;70.15;100404.00;1547591;91;21006;-60
2022/09/03 00:09:18;;;;;;;1.77;1.45;;;;;;;12.16;70.39;100402.18;1583594;88;21529;-60
2022/09/03 00:12:20;;;;;;;1.72;1.22;;;;;;;12.16;70.41;100400.88;1587495;88;21029;-60
2022/09/03 00:14:52;;;;;;;1.82;1.32;;;;;;;12.15;70.42;100393.91;1556098;92;20996;-59
2022/09/03 00:17:30;;;;;;;2.87;1.52;;;;;;;12.00;70.56;100392.81;1567831;90;21023;-60
2022/09/03 00:20:14;;;;;;;3.42;1.30;;;;;;;12.00;70.56;100392.81;1569842;90;21543;-60
2022/09/03 00:22:46;;;;;;;1.92;1.10;;;;;;;11.89;70.61;100389.80;1569900;90;21269;-59
2022/09/03 00:25:23;;;;;;;2.42;1.02;;;;;;;11.81;70.82;100391.38;1571753;90;20888;-60
2022/09/03 00:27:54;;;;;;;1.70;1.40;;;;;;;11.81;70.82;100391.38;1574333;90;21456;-59
2022/09/03 00:30:23;;;;;;;3.30;1.67;;;;;;;11.75;70.94;100394.27;1568285;90;20960;-60
2022/09/03 00:33:10;;;;;;;3.22;2.12;;;;;;;11.72;71.09;100395.70;1569863;90;21007;-60
2022/09/03 00:36:04;;;;;;;1.75;1.07;;;;;;;11.71;71.19;100391.39;1585883;88;21494;-60
2022/09/03 00:38:32;;;;;;;2.17;1.32;;;;;;;11.70;71.37;100396.21;1594917;88;21004;-60
2022/09/03 00:41:22;;;;;;;3.50;1.50;;;;;;;11.71;71.50;100390.55;1597545;88;21085;-60
2022/09/03 00:44:21;;;;;;;2.62;1.27;;;;;;;11.70;71.59;100394.91;1600697;88;20958;-60
2022/09/03 00:47:34;;;;;;;2.65;1.40;;;;;;;11.69;71.68;100399.75;1694305;83;20962;-60
2022/09/03 00:50:08;;;;;;;3.17;1.55;;;;;;;11.68;71.79;100394.56;1708965;83;21058;-60
2022/09/03 00:52:57;;;;;;;3.60;1.90;;;;;;;11.72;72.04;100403.55;1703179;83;21479;-60
2022/09/03 00:55:54;;;;;;;4.05;1.50;;;;;;;11.73;72.04;100407.86;1699168;83;21526;-60
2022/09/03 00:58:39;;;;;;;3.12;1.80;;;;;;;11.83;72.26;100406.57;1692717;83;20993;-60
2022/09/03 01:01:23;;;;;;;3.50;1.67;;;;;;;11.83;72.26;100406.57;1693146;84;20963;-60
2022/09/03 01:04:05;;;;;;;4.25;1.98;;;;;;;11.83;72.09;100406.57;1709093;83;22061;-61
2022/09/03 01:06:52;;;;;;;5.85;2.00;;;;;;;11.75;72.04;100403.42;1670167;84;20873;-60
2022/09/03 01:09:41;;;;;;;3.58;2.00;;;;;;;11.75;72.04;100403.42;1637925;86;20961;-60
2022/09/03 01:12:34;;;;;;;2.02;1.30;;;;;;;11.71;72.31;100401.86;1650038;86;20924;-60
2022/09/03 01:15:09;;;;;;;2.35;1.20;;;;;;;11.71;72.31;100401.86;1646663;86;20991;-60
2022/09/03 01:17:50;;;;;;;2.33;1.12;;;;;;;11.78;72.67;100405.91;1665724;85;21584;-60
2022/09/03 01:20:34;;;;;;;2.55;1.40;;;;;;;11.87;72.76;100403.39;1667660;84;21468;-60
2022/09/03 01:23:15;;;;;;;3.35;1.50;;;;;;;11.91;72.97;100402.83;1668790;85;20887;-61
2022/09/03 01:26:11;;;;;;;2.22;1.42;;;;;;;11.90;73.14;100404.57;1662390;85;21474;-61
2022/09/03 01:29:15;;;;;;;3.05;1.65;;;;;;;11.94;73.06;100402.23;1662832;85;21001;-60
2022/09/03 01:32:08;;;;;;;3.60;1.70;;;;;;;12.02;73.09;100403.23;1664884;85;21116;-61
2022/09/03 01:34:40;;;;;;;2.55;1.77;;;;;;;12.06;73.46;100391.70;1669278;85;20994;-60
2022/09/03 01:37:37;;;;;;;2.47;1.45;;;;;;;12.06;73.18;100399.55;1664075;84;21788;-61
2022/09/03 01:40:11;;;;;;;3.42;1.70;;;;;;;12.06;73.18;100399.55;1665730;85;20915;-60
2022/09/03 01:43:11;;;;;;;4.97;1.50;;;;;;;12.06;73.40;100407.41;1640429;84;20950;-60
2022/09/03 01:45:47;;;;;;;3.47;1.70;;;;;;;12.05;73.55;100408.33;1687898;84;21446;-61
2022/09/03 01:48:42;;;;;;;2.87;1.33;;;;;;;11.99;73.58;100409.91;1691931;83;21851;-60
2022/09/03 01:51:14;;;;;;;1.87;1.10;;;;;;;11.97;73.62;100414.34;1691331;84;21095;-60
2022/09/03 01:54:05;;;;;;;1.75;1.07;;;;;;;11.99;73.59;100411.21;1690982;84;21422;-60
2022/09/03 01:57:02;;;;;;;1.60;0.82;;;;;;;11.98;73.68;100409.49;1709981;83;20950;-60
2022/09/03 01:59:37;;;;;;;0.50;0.50;;;;;;;11.95;73.75;100407.00;1685306;84;20945;-60
2022/09/03 02:02:09;;;;;;;2.02;0.80;;;;;;;11.94;73.70;100413.17;1694526;83;20923;-60
2022/09/03 02:04:35;;;;;;;1.57;0.55;;;;;;;11.80;73.83;100396.23;1693856;83;20949;-60
2022/09/03 02:07:04;;;;;;;1.40;0.75;;;;;;;11.84;73.81;100408.73;1694593;83;20927;-60
2022/09/03 02:09:31;;;;;;;1.37;0.50;;;;;;;11.79;73.83;100410.24;1686875;84;21018;-60
2022/09/03 02:12:03;;;;;;;3.67;0.75;;;;;;;11.71;73.95;100408.39;1694090;83;21682;-60
2022/09/03 02:14:30;;;;;;;2.05;0.70;;;;;;;11.67;73.98;100406.80;1701306;83;20974;-61
2022/09/03 02:17:02;;;;;;;0.70;0.60;;;;;;;11.64;74.22;100408.23;1704272;83;20883;-60
2022/09/03 02:19:30;;;;;;;1.22;0.65;;;;;;;11.59;74.16;100404.95;1694096;83;21330;-61
2022/09/03 02:21:57;;;;;;;0.60;0.40;;;;;;;11.56;74.30;100394.62;1700482;83;21558;-60
2022/09/03 02:24:25;;;;;;;0.75;0.42;;;;;;;11.53;74.35;100400.82;1698240;84;21007;-61
2022/09/03 02:26:53;;;;;;;1.20;0.60;;;;;;;11.49;74.40;100394.48;1670101;84;20981;-60
2022/09/03 02:29:20;;;;;;;0.70;0.60;;;;;;;11.45;74.42;100399.43;1690472;83;21025;-60
2022/09/03 02:31:47;;;;;;;2.98;0.70;;;;;;;11.39;74.43;100393.53;1717637;81;20875;-60
2022/09/03 02:34:14;;;;;;;1.87;0.40;;;;;;;11.35;74.52;100389.34;1687607;83;20963;-60
2022/09/03 02:36:44;;;;;;;1.30;0.42;;;;;;;11.29;74.61;100392.67;1700355;82;21854;-60
2022/09/03 02:39:12;;;;;;;1.20;0.47;;;;;;;11.24;74.64;100394.16;1697881;83;21057;-61
2022/09/03 02:41:39;;;;;;;0.90;0.30;;;;;;;11.18;74.64;100391.78;1692608;83;20927;-60
2022/09/03 02:44:24;;;;;;;1.20;0.68;;;;;;;11.14;74.67;100387.56;1699514;83;21029;-61
2022/09/03 02:47:05;;;;;;;1.22;0.57;;;;;;;11.09;74.67;100401.27;1698090;83;20953;-61
2022/09/03 02:49:32;;;;;;;0.72;0.40;;;;;;;11.05;74.62;100401.84;1699031;83;21074;-60
2022/09/03 02:52:10;;;;;;;1.00;0.42;;;;;;;11.03;74.65;100396.28;1703990;82;21724;-60
2022/09/03 02:54:38;;;;;;;2.30;0.50;;;;;;;10.98;74.66;100398.62;1693248;83;21010;-60
2022/09/03 02:57:11;;;;;;;1.35;0.50;;;;;;;10.96;74.71;100405.66;1690992;83;20970;-61
2022/09/03 02:59:40;;;;;;;0.65;0.40;;;;;;;10.94;74.77;100410.09;1702990;82;21035;-61
2022/09/03 03:02:07;;;;;;;1.25;0.62;;;;;;;10.95;74.80;100409.20;1695116;83;21196;-60
2022/09/03 03:04:34;;;;;;;1.50;0.53;;;;;;;10.95;74.87;100398.75;1696811;83;20951;-60
2022/09/03 03:07:01;;;;;;;4.95;0.60;;;;;;;10.96;74.89;100403.05;1700427;82;21113;-60
2022/09/03 03:09:27;;;;;;;0.82;0.60;;;;;;;10.95;74.87;100403.97;1718462;81;20946;-60
2022/09/03 03:11:54;;;;;;;3.20;0.97;;;;;;;10.92;74.84;100404.09;1685447;84;21014;-61
2022/09/03 03:14:22;;;;;;;1.20;0.60;;;;;;;10.90;74.95;100404.59;1701940;82;21103;-60
2022/09/03 03:16:50;;;;;;;3.50;0.70;;;;;;;10.86;74.93;100404.30;1691610;83;20910;-61
2022/09/03 03:19:17;;;;;;;2.08;0.68;;;;;;;10.91;74.78;100402.37;1688734;83;20927;-60
2022/09/03 03:21:43;;;;;;;0.82;0.47;;;;;;;10.81;75.08;100401.03;1701488;83;21535;-60
2022/09/03 03:24:10;;;;;;;2.83;0.90;;;;;;;10.76;75.17;100405.57;1705843;82;20930;-60
2022/09/03 03:26:37;;;;;;;2.58;1.00;;;;;;;10.71;75.22;100404.88;1698968;83;21061;-60
2022/09/03 03:29:04;;;;;;;0.72;0.60;;;;;;;10.64;75.28;100408.19;1691530;83;20894;-61
2022/09/03 03:31:31;;;;;;;1.00;0.65;;;;;;;10.60;75.37;100409.65;1689814;83;21430;-60
2022/09/03 03:34:00;;;;;;;2.42;0.72;;;;;;;10.56;75.38;100411.53;1687637;83;21018;-61
2022/09/03 03:36:31;;;;;;;0.90;0.60;;;;;;;10.50;75.63;100404.77;1690518;83;20932;-60
2022/09/03 03:38:59;;;;;;;0.70;0.40;;;;;;;10.44;75.57;100407.58;1687283;84;21042;-61
2022/09/03 03:41:32;;;;;;;1.42;0.60;;;;;;;10.37;75.95;100411.33;1687034;83;20895;-61
2022/09/03 03:44:05;;;;;;;2.10;0.53;;;;;;;10.33;76.20;100421.45;1689108;83;20994;-60
2022/09/03 03:46:40;;;;;;;2.42;0.70;;;;;;;10.32;76.27;100423.69;1681579;84;20899;-60
2022/09/03 03:49:09;;;;;;;1.22;0.55;;;;;;;10.38;76.31;100420.84;1687255;84;20986;-60
2022/09/03 03:51:37;;;;;;;4.37;0.70;;;;;;;10.42;76.34;100414.63;1687512;84;21135;-60
2022/09/03 03:54:05;;;;;;;1.35;0.72;;;;;;;10.45;76.43;100417.13;1694205;83;20986;-60
2022/09/03 03:56:31;;;;;;;;;;;;;;;10.45;76.40;100419.73;1702390;83;21479;-60
2022/09/03 03:58:59;;;;;;;1.30;0.60;;;;;;;10.43;76.59;100410.25;1700148;83;20087;-60
2022/09/03 04:01:27;;;;;;;1.80;0.75;;;;;;;10.38;76.46;100413.02;1697532;83;20934;-60
2022/09/03 04:03:58;;;;;;;1.20;0.50;;;;;;;10.34;76.54;100421.88;1700110;83;21257;-60
2022/09/03 04:06:26;;;;;;;0.95;0.53;;;;;;;10.28;76.60;100416.87;1691873;83;20871;-59
2022/09/03 04:08:53;;;;;;;3.00;0.60;;;;;;;10.23;76.67;100414.84;1690051;83;21005;-59
2022/09/03 04:11:22;;;;;;;0.90;0.60;;;;;;;10.18;76.81;100408.92;1685582;83;21045;-58
2022/09/03 04:13:51;;;;;;;6.90;1.32;;;;;;;10.14;76.90;100408.61;1683242;83;21026;-60
2022/09/03 04:16:26;;;;;;;1.60;0.68;;;;;;;10.09;76.91;100414.02;1685550;83;21348;-60
2022/09/03 04:18:54;;;;;;;0.55;0.53;;;;;;;10.03;76.87;100417.69;1683245;83;21064;-60
2022/09/03 04:21:26;;;;;;;2.47;0.72;;;;;;;9.98;76.97;100414.38;1684540;83;20961;-60
2022/09/03 04:23:54;;;;;;;2.12;0.98;;;;;;;9.96;77.09;100410.95;1683885;83;21607;-61
2022/09/03 04:26:27;;;;;;;1.72;1.45;;;;;;;9.93;77.12;100414.97;1693106;82;20957;-61
2022/09/03 04:28:54;;;;;;;4.78;3.52;;;;;;;9.92;77.23;100418.95;1692080;84;21934;-60
2022/09/03 04:31:21;;;;;;;5.03;2.62;;;;;;;9.90;77.33;100416.38;1696923;83;21571;-60
2022/09/03 04:33:48;;;;;;;4.60;2.87;;;;;;;9.88;77.38;100415.57;1695634;83;20966;-61
2022/09/03 04:36:19;;;;;;;5.83;2.20;;;;;;;9.89;77.42;100417.30;1685596;84;20949;-61
2022/09/03 04:38:48;;;;;;;3.27;0.98;;;;;;;9.88;77.50;100417.33;1688182;83;20969;-61
2022/09/03 04:41:19;;;;;;;1.30;0.72;;;;;;;9.85;77.47;100418.28;1689559;83;21135;-61
2022/09/03 04:43:47;;;;;;;1.17;0.57;;;;;;;9.82;77.58;100414.48;1687021;83;21436;-62
2022/09/03 04:46:15;;;;;;;1.17;0.72;;;;;;;9.79;77.62;100423.71;1690213;83;21375;-60
2022/09/03 04:48:42;;;;;;;1.87;0.88;;;;;;;9.79;77.71;100426.31;1686693;84;20914;-60
2022/09/03 04:51:16;;;;;;;4.05;1.75;;;;;;;9.81;77.80;100421.91;1693256;83;20950;-61
2022/09/03 04:53:46;;;;;;;3.95;1.07;;;;;;;9.83;77.82;100420.96;1695047;83;21901;-61
2022/09/03 04:56:19;;;;;;;1.67;0.90;;;;;;;9.89;77.90;100425.12;1695035;83;20969;-61
2022/09/03 04:58:46;;;;;;;1.10;0.60;;;;;;;9.98;78.04;100423.50;1693549;83;20946;-60
2022/09/03 05:01:19;;;;;;;1.10;0.60;;;;;;;11.04;79.42;100427.59;1695046;83;20958;-61
2022/09/03 05:03:47;;;;;;;0.62;0.50;;;;;;;12.52;79.31;100418.52;1692625;83;20926;-61
2022/09/03 05:06:15;;;;;;;2.98;1.00;;;;;;;13.90;78.35;100425.17;1696158;83;21083;-62
2022/09/03 05:08:45;;;;;;;2.83;0.80;;;;;;;15.07;77.80;100411.20;1690438;83;21476;-62
2022/09/03 05:11:14;;;;;;;1.15;0.90;;;;;;;15.97;77.06;100413.17;1678026;83;20950;-62
2022/09/03 05:13:41;;;;;;;2.55;0.80;;;;;;;16.84;76.99;100401.80;1675625;85;21519;-62
2022/09/03 05:16:11;;;;;;;1.60;0.90;;;;;;;17.73;76.26;100411.89;1677025;85;20989;-62
2022/09/03 05:18:38;;;;;;;2.17;0.90;;;;;;;18.35;75.43;100406.86;1695979;84;21500;-62
2022/09/03 05:21:09;;;;;;;3.42;0.80;;;;;;;18.90;74.91;100400.84;1694337;83;20916;-62
2022/09/03 05:23:38;;;;;;;1.17;0.78;;;;;;;19.06;73.39;100399.28;1668013;84;21467;-62
2022/09/03 05:26:09;;;;;;;2.15;0.72;;;;;;;19.20;73.27;100407.08;1664168;85;20967;-62
2022/09/03 05:28:39;;;;;;;3.17;0.82;;;;;;;19.58;73.88;100404.27;1668220;85;20903;-64
2022/09/03 05:31:09;;;;;;;3.47;1.10;;;;;;;20.24;73.82;100404.62;1662712;85;22035;-62
2022/09/03 05:33:40;;;;;;;2.75;1.02;;;;;;;20.87;73.52;100406.87;1677988;84;20977;-62
2022/09/03 05:36:10;;;;;;;1.72;1.10;;;;;;;21.19;72.60;100405.11;1678942;84;20970;-62
2022/09/03 05:38:36;;;;;;;1.37;0.90;;;;;;;21.38;71.65;100399.68;1677876;84;20997;-62
2022/09/03 05:41:07;;;;;;;2.40;1.17;;;;;;;21.66;71.69;100405.73;1659415;84;21011;-62
2022/09/03 05:43:34;;;;;;;4.90;0.90;;;;;;;21.77;71.07;100410.16;1655037;85;21053;-62
2022/09/03 05:46:11;;;;;;;1.57;0.80;;;;;;;21.61;69.73;100401.27;1666897;84;20927;-63
2022/09/03 05:48:39;;;;;;;1.85;0.90;;;;;;;21.48;69.33;100401.92;1670059;85;20943;-62
2022/09/03 05:51:17;;;;;;;1.77;0.70;;;;;;;21.51;69.33;100396.39;1695375;84;20894;-63
2022/09/03 05:53:44;;;;;;;2.02;0.88;;;;;;;21.61;68.56;100402.61;1692606;83;21068;-62
2022/09/03 05:56:20;;;;;;;2.37;0.80;;;;;;;21.52;67.93;100395.41;1666143;85;21048;-63
2022/09/03 05:58:52;;;;;;;4.85;0.90;;;;;;;21.41;67.42;100403.41;1665343;85;20939;-63
2022/09/03 06:01:31;;;;;;;1.17;0.55;;;;;;;21.48;67.39;100401.08;1686677;84;21445;-63
2022/09/03 06:04:13;;;;;;;1.12;0.50;;;;;;;21.38;66.37;100406.33;1690375;83;21448;-61
2022/09/03 06:06:42;;;;;;;1.12;0.68;;;;;;;20.97;65.12;100407.81;1659904;85;20997;-61
2022/09/03 06:09:17;;;;;;;0.62;0.50;;;;;;;19.73;63.77;100417.38;1689251;83;21535;-61
2022/09/03 06:11:44;;;;;;;2.15;0.60;;;;;;;18.55;63.50;100422.19;1691833;83;21264;-62
2022/09/03 06:14:13;;;;;;;1.45;0.80;;;;;;;17.60;63.86;100423.75;1692930;83;20967;-61
2022/09/03 06:16:43;;;;;;;1.90;0.68;;;;;;;16.95;64.15;100424.39;1697712;84;20954;-62
2022/09/03 06:19:12;;;;;;;1.52;0.80;;;;;;;16.38;64.47;100426.50;1684113;83;21014;-62
2022/09/03 06:21:41;;;;;;;3.33;1.10;;;;;;;16.08;64.87;100423.93;1686883;83;21482;-62
2022/09/03 06:24:14;;;;;;;4.08;0.62;;;;;;;15.86;64.77;100421.70;1694266;83;21465;-61
2022/09/03 06:26:41;;;;;;;1.27;0.70;;;;;;;15.73;64.91;100425.49;1689083;82;20930;-61
2022/09/03 06:29:08;;;;;;;4.03;0.93;;;;;;;15.56;64.76;100433.01;1689656;84;20982;-61
2022/09/03 06:31:38;;;;;;;3.42;0.90;;;;;;;15.37;64.62;100434.50;1710883;82;20931;-61
2022/09/03 06:34:05;;;;;;;1.15;0.60;;;;;;;15.15;64.53;100432.67;1693159;83;23145;-61
2022/09/03 06:36:32;;;;;;;1.90;0.80;;;;;;;14.90;64.40;100438.42;1701649;83;21480;-61
2022/09/03 06:38:59;;;;;;;;;;;;;;;14.70;64.48;100446.06;1705851;82;21017;-61
2022/09/03 06:41:30;;;;;;;2.08;0.72;;;;;;;14.63;64.78;100442.07;1700370;82;20126;-60
2022/09/03 06:44:04;;;;;;;1.10;0.75;;;;;;;14.58;64.75;100450.66;1702522;82;20961;-61
2022/09/03 06:46:37;;;;;;;2.80;0.60;;;;;;;14.58;64.77;100446.72;1676176;83;22412;-61
2022/09/03 06:49:04;;;;;;;1.10;0.42;;;;;;;14.50;64.72;100449.70;1703889;83;20957;-61
2022/09/03 06:51:32;;;;;;;;;;;;;;;14.46;64.68;100447.70;1697206;83;20985;-60
2022/09/03 06:54:09;;;;;;;2.40;0.75;;;;;;;14.40;64.88;100450.66;1698225;83;20135;-61
2022/09/03 06:56:37;;;;;;;1.32;0.70;;;;;;;14.37;64.76;100460.02;1700020;83;20938;-61
2022/09/03 06:59:08;;;;;;;1.45;0.57;;;;;;;14.35;64.73;100457.07;1691596;83;21036;-61
2022/09/03 07:01:37;;;;;;;1.22;0.70;;;;;;;14.32;64.92;100456.77;1698892;83;21086;-61
2022/09/03 07:04:04;;;;;;;1.77;0.95;;;;;;;14.28;64.80;100448.64;1700146;82;21845;-61
2022/09/03 07:06:39;;;;;;;1.62;0.70;;;;;;;14.27;65.06;100446.95;1682293;84;20915;-61
2022/09/03 07:09:06;;;;;;;3.62;0.55;;;;;;;14.15;64.77;100447.11;1694716;83;21045;-62
2022/09/03 07:11:36;;;;;;;1.07;0.53;;;;;;;14.05;65.00;100452.43;1687087;83;21951;-60
2022/09/03 07:14:04;;;;;;;0.62;0.50;;;;;;;14.03;65.10;100451.21;1713458;81;20922;-60
2022/09/03 07:16:34;;;;;;;0.80;0.50;;;;;;;14.03;65.23;100447.27;1688938;83;20927;-60
2022/09/03 07:19:02;;;;;;;1.00;0.53;;;;;;;14.14;65.51;100458.52;1716724;83;20939;-60
2022/09/03 07:21:32;;;;;;;3.77;1.00;;;;;;;14.25;65.46;100460.62;1716888;82;20997;-60
2022/09/03 07:24:01;;;;;;;1.00;0.62;;;;;;;14.29;65.49;100455.61;1693388;83;20964;-60
2022/09/03 07:26:30;;;;;;;2.52;0.70;;;;;;;14.36;65.55;100459.60;1696830;83;20879;-61
2022/09/03 07:28:59;;;;;;;1.12;0.60;;;;;;;14.48;65.70;100460.30;1692446;83;21468;-60
2022/09/03 07:31:31;;;;;;;1.10;0.50;;;;;;;14.59;65.65;100458.91;1688790;83;20880;-61
2022/09/03 07:34:11;;;;;;;1.70;0.75;;;;;;;14.65;65.70;100452.05;1715766;82;21492;-61
2022/09/03 07:36:44;;;;;;;1.35;0.55;;;;;;;14.68;65.69;100457.14;1688972;83;21968;-60
2022/09/03 07:39:14;;;;;;;1.77;0.60;;;;;;;14.72;65.51;100456.03;1688254;83;20915;-60
2022/09/03 07:41:47;;;;;;;2.15;0.45;;;;;;;14.81;65.72;100467.84;1716730;83;20914;-61
2022/09/03 07:44:18;;;;;;;1.12;0.70;;;;;;;14.94;65.77;100464.48;1714720;82;20961;-61
2022/09/03 07:46:46;;;;;;;3.47;0.50;;;;;;;15.08;65.71;100468.16;1688253;83;21495;-61
2022/09/03 07:49:13;;;;;;;3.67;0.98;;;;;;;15.19;65.87;100464.47;1691975;84;21214;-61
2022/09/03 07:51:40;;;;;;;0.60;0.40;;;;;;;15.34;65.83;100464.94;1702024;83;20966;-61
2022/09/03 07:54:09;;;;;;;1.40;0.65;;;;;;;15.39;65.27;100470.80;1698822;83;21452;-61
2022/09/03 07:56:38;;;;;;;2.10;0.70;;;;;;;15.43;65.54;100469.71;1697450;84;21094;-61
2022/09/03 07:59:05;;;;;;;3.58;0.85;;;;;;;15.53;65.48;100474.45;1693748;83;20962;-61
2022/09/03 08:01:33;;;;;;;0.68;0.53;;;;;;;15.57;65.32;100473.33;1694382;83;21655;-60
2022/09/03 08:04:02;;;;;;;0.60;0.45;;;;;;;15.57;65.20;100486.48;1695303;84;20935;-61
2022/09/03 08:06:30;;;;;;;2.40;0.72;;;;;;;15.55;65.01;100479.17;1695562;83;21626;-61
2022/09/03 08:09:01;;;;;;;2.20;0.60;;;;;;;15.53;65.06;100484.98;1698284;83;20919;-62
2022/09/03 08:11:30;;;;;;;1.25;0.60;;;;;;;15.63;65.13;100479.59;1686725;83;20983;-61
2022/09/03 08:14:01;;;;;;;3.75;1.10;;;;;;;15.71;65.28;100489.26;1704717;83;21746;-61
2022/09/03 08:16:34;;;;;;;2.17;0.78;;;;;;;15.77;65.11;100486.27;1683707;84;20930;-61
2022/09/03 08:19:01;;;;;;;1.90;0.80;;;;;;;15.85;65.00;100491.08;1687727;84;21299;-61
2022/09/03 08:21:28;;;;;;;2.65;0.72;;;;;;;15.82;64.90;100489.50;1692112;84;21426;-62
2022/09/03 08:24:01;;;;;;;1.52;0.93;;;;;;;15.73;64.66;100484.73;1690935;83;20950;-62
2022/09/03 08:26:38;;;;;;;1.47;0.70;;;;;;;15.70;64.68;100492.81;1688910;84;21912;-61
2022/09/03 08:29:05;;;;;;;0.50;0.40;;;;;;;15.81;65.06;100494.36;1691496;83;21008;-61
2022/09/03 08:31:32;;;;;;;;;;;;;;;16.09;64.83;100488.84;1709649;83;21480;-62
2022/09/03 08:34:05;;;;;;;2.15;0.70;;;;;;;16.23;64.70;100490.20;1690006;83;20161;-62
2022/09/03 08:36:36;;;;;;;1.15;0.50;;;;;;;16.24;64.44;100495.83;1684547;83;20938;-62
2022/09/03 08:39:08;;;;;;;1.00;0.65;;;;;;;16.38;64.69;100491.55;1690393;84;21069;-62
2022/09/03 08:41:51;;;;;;;3.35;0.50;;;;;;;16.56;64.32;100491.31;1705409;83;21637;-62
2022/09/03 08:44:32;;;;;;;0.60;0.50;;;;;;;16.61;63.88;100493.68;1700018;82;21039;-62
2022/09/03 08:47:14;;;;;;;1.22;0.50;;;;;;;16.76;64.06;100491.45;1693287;83;20946;-60
2022/09/03 08:49:58;;;;;;;0.70;0.60;;;;;;;16.96;64.09;100482.80;1685324;83;20967;-60
2022/09/03 08:53:02;;;;;;;1.40;0.42;;;;;;;17.27;63.88;100474.28;1694014;84;21081;-61
2022/09/03 08:55:35;;;;;;;2.75;0.53;;;;;;;17.27;63.58;100484.36;1687020;83;20911;-61
2022/09/03 08:58:13;;;;;;;2.87;0.50;;;;;;;17.38;63.13;100481.05;1708607;83;20939;-61
2022/09/03 09:00:51;;;;;;;1.35;0.37;;;;;;;17.22;63.02;100491.27;1693260;83;20947;-60
2022/09/03 09:03:42;;;;;;;0.88;0.40;;;;;;;17.08;62.56;100487.30;1688682;83;21508;-60
2022/09/03 09:06:20;;;;;;;1.35;0.53;;;;;;;17.00;62.42;100494.87;1701501;83;21067;-61
2022/09/03 09:09:08;;;;;;;2.67;0.30;;;;;;;16.97;62.47;100484.47;1688631;84;20910;-61
2022/09/03 09:11:46;;;;;;;0.65;0.30;;;;;;;17.06;61.62;100494.48;1711558;82;20951;-60
2022/09/03 09:14:24;;;;;;;0.47;0.40;;;;;;;17.06;62.07;100481.77;1693891;84;22012;-60
2022/09/03 09:17:12;;;;;;;0.20;0.20;;;;;;;17.03;61.30;100488.08;1696264;83;20899;-60
2022/09/03 09:20:07;;;;;;;1.12;0.40;;;;;;;16.93;61.10;100485.63;1695807;83;21065;-60
2022/09/03 09:22:47;;;;;;;0.68;0.30;;;;;;;16.95;61.32;100491.66;1695462;83;21569;-60
2022/09/03 09:25:18;;;;;;;2.77;0.40;;;;;;;17.06;60.65;100483.93;1715035;83;21008;-60
2022/09/03 09:27:58;;;;;;;3.20;0.42;;;;;;;17.12;60.85;100488.81;1698937;83;20947;-61
2022/09/03 09:30:28;;;;;;;1.17;0.30;;;;;;;17.23;60.64;100486.36;1693758;84;20949;-61
2022/09/03 09:32:54;;;;;;;0.70;0.50;;;;;;;17.28;60.60;100489.16;1686601;83;21035;-60
2022/09/03 09:35:26;;;;;;;1.72;0.60;;;;;;;17.35;60.52;100498.41;1712167;83;21496;-63
2022/09/03 09:37:57;;;;;;;0.90;0.37;;;;;;;17.19;60.05;100498.03;1720071;82;21081;-62
2022/09/03 09:40:41;;;;;;;0.65;0.40;;;;;;;17.11;59.93;100502.97;1711481;83;20950;-60
2022/09/03 09:43:20;;;;;;;0.50;0.40;;;;;;;16.92;59.52;100502.41;1717232;83;21504;-60
2022/09/03 09:45:50;;;;;;;0.30;0.30;;;;;;;16.71;59.47;100492.16;1714610;82;21115;-61
2022/09/03 09:48:33;;;;;;;1.20;0.60;;;;;;;16.63;59.56;100499.69;1698069;83;21759;-60
2022/09/03 09:51:07;;;;;;;0.53;0.40;;;;;;;16.59;59.66;100498.19;1697424;83;20982;-59
2022/09/03 09:53:36;;;;;;;1.55;0.40;;;;;;;16.55;59.42;100489.62;1694946;84;20941;-60
2022/09/03 09:56:03;;;;;;;0.40;0.30;;;;;;;16.61;59.56;100497.63;1694140;84;20923;-60
2022/09/03 09:58:33;;;;;;;0.30;0.30;;;;;;;16.85;59.35;100495.31;1702167;83;21589;-61
2022/09/03 10:01:15;;;;;;;0.30;0.30;;;;;;;17.19;59.82;100490.11;1673637;84;20934;-61
2022/09/03 10:03:51;;;;;;;0.40;0.30;;;;;;;17.48;59.48;100483.48;1715014;83;20961;-61
2022/09/03 10:09:16;;;;;;;0.68;0.30;;;;;;;17.70;58.59;100480.77;1692669;83;21529;-61
2022/09/03 10:12:13;;;;;;;0.70;0.30;;;;;;;17.30;58.46;100480.69;1684139;84;21505;-61
2022/09/03 10:14:47;;;;;;;0.95;0.30;;;;;;;17.27;57.97;100491.44;1694595;83;21006;-60
2022/09/03 10:17:22;;;;;;;1.00;0.45;;;;;;;17.18;58.07;100491.06;1703194;83;20886;-61
2022/09/03 10:23:03;;;;;;;3.70;0.55;;;;;;;16.77;57.84;100480.42;1701522;83;21551;-61
2022/09/03 10:25:50;;;;;;;1.22;0.40;;;;;;;16.72;57.90;100485.97;1706484;82;21054;-61
2022/09/03 10:28:16;;;;;;;0.90;0.40;;;;;;;16.75;57.70;100479.19;1618972;86;21556;-60
2022/09/03 10:30:46;;;;;;;;;;;;;;;16.91;57.74;100486.18;1649343;84;20986;-60
2022/09/03 10:33:26;;;;;;;0.75;0.40;;;;;;;17.16;57.82;100487.67;1643301;85;20103;-61
2022/09/03 10:36:18;;;;;;;0.55;0.35;;;;;;;17.50;57.67;100495.25;1613048;86;21554;-61
2022/09/03 10:38:44;;;;;;;0.93;0.50;;;;;;;17.55;57.28;100476.85;1610692;86;22993;-61
2022/09/03 10:41:19;;;;;;;2.05;0.40;;;;;;;17.74;57.41;100473.03;1643413;85;21465;-60
2022/09/03 10:44:09;;;;;;;0.65;0.30;;;;;;;17.75;57.15;100476.03;1642589;85;20939;-61
2022/09/03 10:47:19;;;;;;;3.58;0.62;;;;;;;17.63;56.56;100482.97;1643126;85;21034;-60
2022/09/03 10:50:14;;;;;;;3.20;0.35;;;;;;;17.43;56.09;100478.97;1644961;85;21034;-59
2022/09/03 10:53:11;;;;;;;1.17;0.30;;;;;;;17.18;56.40;100469.95;1637973;85;21132;-61
2022/09/03 10:55:52;;;;;;;3.27;0.60;;;;;;;17.29;56.47;100464.00;1644620;84;20902;-61
2022/09/03 10:59:16;;;;;;;2.75;0.40;;;;;;;17.36;56.32;100456.05;1645935;84;20986;-60
2022/09/03 11:02:03;;;;;;;3.15;0.47;;;;;;;17.35;56.06;100464.09;1643306;84;20997;-60
2022/09/03 11:05:11;;;;;;;0.90;0.30;;;;;;;16.91;55.26;100467.23;1642818;84;20927;-60
2022/09/03 11:07:46;;;;;;;0.30;0.30;;;;;;;16.59;55.35;100467.87;1700573;83;21432;-60
2022/09/03 11:10:27;;;;;;;0.35;0.30;;;;;;;16.59;55.66;100463.91;1691608;83;21002;-61
2022/09/03 11:13:03;;;;;;;0.80;0.42;;;;;;;16.86;55.69;100456.59;1714336;82;20987;-60
2022/09/03 11:15:46;;;;;;;0.47;0.35;;;;;;;17.05;55.34;100450.55;1697050;83;21461;-61
2022/09/03 11:18:45;;;;;;;1.47;0.30;;;;;;;17.10;54.92;100448.48;1697356;82;20959;-62
2022/09/03 11:21:15;;;;;;;2.02;0.37;;;;;;;16.90;54.59;100458.12;1683528;83;21152;-62
2022/09/03 11:23:46;;;;;;;0.90;0.40;;;;;;;16.97;54.56;100439.63;1697370;83;20931;-61
2022/09/03 11:26:17;;;;;;;1.75;0.37;;;;;;;16.75;54.13;100450.17;1696938;84;20909;-62
2022/09/03 11:28:55;;;;;;;0.65;0.33;;;;;;;16.58;54.26;100462.23;1697207;83;20963;-62
2022/09/03 11:31:56;;;;;;;0.33;0.30;;;;;;;16.73;54.45;100452.05;1697160;83;20945;-61
2022/09/03 11:34:49;;;;;;;0.75;0.40;;;;;;;16.85;53.50;100447.00;1688465;83;22067;-60
2022/09/03 11:37:26;;;;;;;1.25;0.40;;;;;;;17.07;54.18;100439.44;1690357;83;20918;-61
2022/09/03 11:40:18;;;;;;;0.80;0.40;;;;;;;17.42;54.06;100437.66;1656516;84;20921;-63
2022/09/03 11:42:46;;;;;;;0.45;0.40;;;;;;;17.55;53.55;100442.53;1670004;84;21653;-63
2022/09/03 11:45:24;;;;;;;0.20;0.20;;;;;;;17.57;53.39;100465.73;1658994;84;20954;-63
2022/09/03 11:47:51;;;;;;;0.50;0.37;;;;;;;17.37;53.20;100459.56;1665905;84;21440;-62
2022/09/03 11:50:25;;;;;;;0.40;0.35;;;;;;;17.16;52.77;100448.09;1673184;84;20954;-62
2022/09/03 11:53:17;;;;;;;0.50;0.30;;;;;;;17.02;52.87;100437.55;1669033;84;21506;-62
2022/09/03 11:56:01;;;;;;;0.68;0.37;;;;;;;17.01;53.10;100441.16;1686207;83;20978;-61
2022/09/03 11:58:37;;;;;;;2.47;0.40;;;;;;;17.31;53.47;100432.22;1691183;83;20938;-63
2022/09/03 12:01:14;;;;;;;0.60;0.30;;;;;;;17.54;53.06;100438.20;1679384;83;27363;-61
2022/09/03 12:04:02;;;;;;;0.40;0.25;;;;;;;17.30;52.57;100447.69;1671808;84;21013;-60
2022/09/03 12:06:50;;;;;;;;;;;;;;;16.70;52.23;100458.84;1682480;84;21021;-60
2022/09/03 12:09:45;;;;;;;1.52;0.30;;;;;;;16.34;52.50;100439.02;1698255;83;20157;-61